Time,TemperatureF,DewpointF,PressureIn,WindDirection,WindDirectionDegrees,WindSpeedMPH,WindSpeedGustMPH,Humidity,HourlyPrecipIn,Conditions,Clouds,dailyrainin,SoftwareType,DateUTC
2013-07-09 00:15:00,70.0,69.0,29.98,WSW,255,0.0,0.0,98,0.00,,,0.00,weatherlink.com 1.10,2013-07-09 04:15:00,
2013-07-09 00:29:00,69.6,69.0,29.98,WSW,255,0.0,0.0,98,0.00,,,0.00,weatherlink.com 1.10,2013-07-09 04:29:00,
2013-07-09 00:44:00,69.3,69.0,29.98,WSW,255,0.0,0.0,98,0.00,,,0.00,weatherlink.com 1.10,2013-07-09 04:44:00,
2013-07-09 00:59:00,69.1,69.0,29.98,WSW,255,0.0,0.0,98,0.00,,,0.00,weatherlink.com 1.10,2013-07-09 04:59:00,
2013-07-09 01:14:00,68.8,68.0,29.98,WSW,254,0.0,0.0,98,0.00,,,0.00,weatherlink.com 1.10,2013-07-09 05:14:00,
2013-07-09 01:29:00,68.5,68.0,29.98,WSW,255,0.0,0.0,98,0.00,,,0.00,weatherlink.com 1.10,2013-07-09 05:29:00,
2013-07-09 01:44:00,68.4,68.0,29.97,WSW,255,0.0,0.0,98,0.00,,,0.00,weatherlink.com 1.10,2013-07-09 05:44:00,
2013-07-09 01:59:00,68.1,68.0,29.97,WSW,255,0.0,0.0,98,0.00,,,0.00,weatherlink.com 1.10,2013-07-09 05:59:00,
2013-07-09 02:14:00,67.8,67.0,29.98,WSW,255,0.0,0.0,98,0.00,,,0.00,weatherlink.com 1.10,2013-07-09 06:14:00,
2013-07-09 02:29:00,67.7,67.0,29.98,WSW,255,0.0,0.0,98,0.00,,,0.00,weatherlink.com 1.10,2013-07-09 06:29:00,
2013-07-09 02:45:00,68.7,68.0,29.98,SSW,207,0.0,0.0,99,0.00,,,0.00,weatherlink.com 1.10,2013-07-09 06:45:00,
2013-07-09 03:00:00,69.4,69.0,29.98,SSW,207,0.0,0.0,99,0.00,,,0.00,weatherlink.com 1.10,2013-07-09 07:00:00,
2013-07-09 03:15:00,69.8,70.0,29.98,SSW,207,0.0,0.0,99,0.00,,,0.00,weatherlink.com 1.10,2013-07-09 07:15:00,
2013-07-09 03:30:00,69.5,69.0,29.98,SSW,206,0.0,0.0,99,0.00,,,0.00,weatherlink.com 1.10,2013-07-09 07:30:00,
2013-07-09 03:45:00,69.1,69.0,29.98,SSW,207,0.0,0.0,99,0.00,,,0.00,weatherlink.com 1.10,2013-07-09 07:45:00,
2013-07-09 04:00:00,68.8,69.0,29.98,SSW,207,0.0,0.0,99,0.00,,,0.00,weatherlink.com 1.10,2013-07-09 08:00:00,
2013-07-09 04:15:00,69.0,69.0,29.98,SSW,207,0.0,0.0,99,0.00,,,0.00,weatherlink.com 1.10,2013-07-09 08:15:00,
2013-07-09 04:31:00,69.4,69.0,29.98,SSW,207,0.0,0.0,99,0.00,,,0.00,weatherlink.com 1.10,2013-07-09 08:31:00,
2013-07-09 04:45:00,69.6,69.0,29.98,SSW,207,0.0,0.0,99,0.00,,,0.00,weatherlink.com 1.10,2013-07-09 08:45:00,
2013-07-09 05:00:00,69.7,69.0,29.98,SSW,207,0.0,0.0,99,0.00,,,0.00,weatherlink.com 1.10,2013-07-09 09:00:00,
2013-07-09 05:15:00,69.7,69.0,29.99,SSW,207,0.0,0.0,99,0.00,,,0.00,weatherlink.com 1.10,2013-07-09 09:15:00,
2013-07-09 05:30:00,69.7,69.0,29.99,SW,222,0.0,0.0,99,0.00,,,0.00,weatherlink.com 1.10,2013-07-09 09:30:00,
2013-07-09 05:45:00,69.7,69.0,29.99,SSW,210,0.0,0.0,99,0.00,,,0.00,weatherlink.com 1.10,2013-07-09 09:45:00,
2013-07-09 06:00:00,69.7,69.0,29.99,SSE,148,0.0,1.0,99,0.00,,,0.00,weatherlink.com 1.10,2013-07-09 10:00:00,
2013-07-09 06:15:00,69.7,69.0,29.99,SSE,167,0.0,1.0,99,0.00,,,0.00,weatherlink.com 1.10,2013-07-09 10:15:00,
2013-07-09 06:30:00,69.6,69.0,29.99,SSE,167,0.0,1.0,99,0.00,,,0.00,weatherlink.com 1.10,2013-07-09 10:30:00,
2013-07-09 06:45:00,69.5,69.0,29.99,SSE,167,0.0,0.0,99,0.00,,,0.00,weatherlink.com 1.10,2013-07-09 10:45:00,
2013-07-09 07:00:00,69.4,69.0,29.99,SSE,167,0.0,0.0,99,0.00,,,0.00,weatherlink.com 1.10,2013-07-09 11:00:00,
2013-07-09 07:15:00,69.4,69.0,30.00,SSE,167,0.0,1.0,99,0.00,,,0.00,weatherlink.com 1.10,2013-07-09 11:15:00,
2013-07-09 07:30:00,69.5,69.0,30.00,South,174,0.0,1.0,99,0.00,,,0.00,weatherlink.com 1.10,2013-07-09 11:30:00,
2013-07-09 07:45:00,69.6,69.0,30.00,South,174,0.0,0.0,99,0.00,,,0.00,weatherlink.com 1.10,2013-07-09 11:45:00,
2013-07-09 08:00:00,69.8,70.0,30.00,South,186,0.0,1.0,99,0.00,,,0.00,weatherlink.com 1.10,2013-07-09 12:00:00,
2013-07-09 08:15:00,69.9,70.0,30.00,South,186,0.0,1.0,99,0.00,,,0.00,weatherlink.com 1.10,2013-07-09 12:15:00,
2013-07-09 08:30:00,70.3,70.0,30.00,South,173,0.0,1.0,99,0.00,,,0.00,weatherlink.com 1.10,2013-07-09 12:30:00,
2013-07-09 08:45:00,70.4,70.0,30.00,SE,139,0.0,3.0,99,0.00,,,0.00,weatherlink.com 1.10,2013-07-09 12:45:00,
2013-07-09 09:00:00,70.6,70.0,30.00,SE,136,0.0,2.0,99,0.00,,,0.00,weatherlink.com 1.10,2013-07-09 13:00:00,
2013-07-09 09:15:00,71.1,71.0,30.01,SSE,165,1.0,1.0,99,0.00,,,0.00,weatherlink.com 1.10,2013-07-09 13:15:00,
2013-07-09 09:30:00,71.2,71.0,30.00,SW,228,0.0,1.0,99,0.00,,,0.00,weatherlink.com 1.10,2013-07-09 13:30:00,
2013-07-09 09:45:00,71.7,71.0,30.00,SW,229,0.0,1.0,99,0.00,,,0.00,weatherlink.com 1.10,2013-07-09 13:45:00,
2013-07-09 10:00:00,72.5,72.0,30.00,WSW,246,0.0,3.0,99,0.00,,,0.00,weatherlink.com 1.10,2013-07-09 14:00:00,
2013-07-09 10:15:00,73.3,73.0,30.00,SE,143,1.0,3.0,98,0.00,,,0.00,weatherlink.com 1.10,2013-07-09 14:15:00,
2013-07-09 10:30:00,74.4,73.0,30.00,ESE,114,0.0,1.0,96,0.00,,,0.00,weatherlink.com 1.10,2013-07-09 14:30:00,
2013-07-09 10:45:00,75.5,73.0,30.00,SW,225,1.0,1.0,93,0.00,,,0.00,weatherlink.com 1.10,2013-07-09 14:45:00,
2013-07-09 11:00:00,76.2,74.0,30.00,SSE,158,0.0,2.0,92,0.00,,,0.00,weatherlink.com 1.10,2013-07-09 15:00:00,
2013-07-09 11:15:00,76.6,74.0,29.99,South,174,0.0,4.0,91,0.00,,,0.00,weatherlink.com 1.10,2013-07-09 15:15:00,
2013-07-09 11:30:00,77.9,76.0,29.99,SE,146,1.0,1.0,92,0.00,,,0.00,weatherlink.com 1.10,2013-07-09 15:30:00,
2013-07-09 11:45:00,78.5,75.0,29.98,SSE,162,2.0,3.0,89,0.00,,,0.00,weatherlink.com 1.10,2013-07-09 15:45:00,
2013-07-09 12:00:00,79.2,75.0,29.99,SSE,155,1.0,3.0,88,0.00,,,0.00,weatherlink.com 1.10,2013-07-09 16:00:00,
2013-07-09 12:15:00,79.8,76.0,29.99,ESE,120,0.0,3.0,88,0.00,,,0.00,weatherlink.com 1.10,2013-07-09 16:15:00,
2013-07-09 12:31:00,80.1,76.0,29.98,South,191,2.0,4.0,87,0.00,,,0.00,weatherlink.com 1.10,2013-07-09 16:31:00,
2013-07-09 12:46:00,80.4,76.0,29.98,South,174,0.0,1.0,86,0.00,,,0.00,weatherlink.com 1.10,2013-07-09 16:46:00,
2013-07-09 13:01:00,82.1,78.0,29.98,ESE,112,0.0,1.0,86,0.00,,,0.00,weatherlink.com 1.10,2013-07-09 17:01:00,
2013-07-09 13:16:00,82.2,77.0,29.97,South,169,1.0,3.0,85,0.00,,,0.00,weatherlink.com 1.10,2013-07-09 17:16:00,
2013-07-09 13:31:00,81.8,77.0,29.97,East,84,3.0,4.0,85,0.00,,,0.00,weatherlink.com 1.10,2013-07-09 17:31:00,
2013-07-09 13:46:00,82.8,78.0,29.96,SW,231,2.0,3.0,85,0.00,,,0.00,weatherlink.com 1.10,2013-07-09 17:46:00,
2013-07-09 14:01:00,84.2,77.0,29.95,ESE,121,2.0,4.0,80,0.00,,,0.00,weatherlink.com 1.10,2013-07-09 18:01:00,
2013-07-09 14:16:00,84.4,77.0,29.94,East,98,2.0,4.0,78,0.00,,,0.00,weatherlink.com 1.10,2013-07-09 18:16:00,
2013-07-09 14:31:00,84.8,78.0,29.94,SW,224,0.0,1.0,80,0.00,,,0.00,weatherlink.com 1.10,2013-07-09 18:31:00,
2013-07-09 14:46:00,84.4,78.0,29.94,NNW,335,0.0,2.0,80,0.00,,,0.00,weatherlink.com 1.10,2013-07-09 18:46:00,
2013-07-09 15:01:00,85.4,78.0,29.93,SE,129,2.0,2.0,78,0.00,,,0.00,weatherlink.com 1.10,2013-07-09 19:01:00,
2013-07-09 15:23:00,81.4,75.0,29.94,SW,224,0.0,10.0,80,0.11,,,0.11,weatherlink.com 1.10,2013-07-09 19:23:00,
2013-07-09 19:34:00,77.5,75.0,29.89,SSW,207,0.0,0.0,93,0.00,,,0.77,weatherlink.com 1.10,2013-07-09 23:34:00,
2013-07-09 19:49:00,77.0,75.0,29.89,SSW,207,0.0,0.0,94,0.00,,,0.77,weatherlink.com 1.10,2013-07-09 23:49:00,
2013-07-09 20:04:00,77.1,76.0,29.90,SSW,207,0.0,0.0,96,0.00,,,0.77,weatherlink.com 1.10,2013-07-10 00:04:00,
2013-07-09 20:19:00,77.0,75.0,29.90,WSW,248,0.0,3.0,92,0.00,,,0.77,weatherlink.com 1.10,2013-07-10 00:19:00,
2013-07-09 20:34:00,77.1,74.0,29.89,ESE,108,0.0,1.0,91,0.00,,,0.77,weatherlink.com 1.10,2013-07-10 00:34:00,
2013-07-09 20:49:00,76.6,74.0,29.89,SE,135,1.0,1.0,92,0.00,,,0.77,weatherlink.com 1.10,2013-07-10 00:49:00,
2013-07-09 21:04:00,76.1,74.0,29.89,SE,134,0.0,1.0,93,0.00,,,0.77,weatherlink.com 1.10,2013-07-10 01:04:00,
2013-07-09 21:19:00,75.7,74.0,29.89,SE,134,0.0,1.0,94,0.00,,,0.77,weatherlink.com 1.10,2013-07-10 01:19:00,
2013-07-09 21:34:00,75.2,74.0,29.89,ESE,110,0.0,2.0,95,0.00,,,0.77,weatherlink.com 1.10,2013-07-10 01:34:00,
2013-07-09 21:49:00,74.8,74.0,29.88,ESE,112,0.0,1.0,96,0.00,,,0.77,weatherlink.com 1.10,2013-07-10 01:49:00,
2013-07-09 22:04:00,74.4,73.0,29.88,ESE,111,0.0,0.0,96,0.00,,,0.77,weatherlink.com 1.10,2013-07-10 02:04:00,
2013-07-09 22:19:00,74.4,74.0,29.88,ESE,109,0.0,2.0,97,0.00,,,0.77,weatherlink.com 1.10,2013-07-10 02:19:00,
2013-07-09 22:34:00,74.2,73.0,29.89,SE,135,0.0,0.0,97,0.00,,,0.77,weatherlink.com 1.10,2013-07-10 02:34:00,
2013-07-09 22:49:00,74.2,73.0,29.89,SE,143,0.0,0.0,97,0.00,,,0.77,weatherlink.com 1.10,2013-07-10 02:49:00,
2013-07-09 23:04:00,74.1,73.0,29.89,South,173,0.0,1.0,97,0.00,,,0.77,weatherlink.com 1.10,2013-07-10 03:04:00,
2013-07-09 23:19:00,74.3,74.0,29.88,South,173,0.0,0.0,98,0.00,,,0.77,weatherlink.com 1.10,2013-07-10 03:19:00,
2013-07-09 23:34:00,74.5,74.0,29.89,SE,143,0.0,1.0,98,0.00,,,0.77,weatherlink.com 1.10,2013-07-10 03:34:00,
2013-07-09 23:49:00,74.8,74.0,29.88,East,90,0.0,1.0,98,0.00,,,0.77,weatherlink.com 1.10,2013-07-10 03:49:00,